Дата Время Давление Темп. Влажн. Скор.ветра Напр.ветра Макс.ветер Осадки/час Осадки
24.09.20 10:00 747.3 17.9 62.7 1.6 206 3.1 0 0
24.09.20 09:00 747.3 15.8 69.1 1.1 181 1.8 0 0
24.09.20 08:00 746.9 13.8 79.8 0.6 0 1.1 0 0
24.09.20 07:00 747.5 10.1 91.9 0.6 0 0 0 0
24.09.20 06:00 747.6 10.3 91.2 0.6 0 0.9 0 0
24.09.20 05:00 747.5 11 88.9 0.6 0 2.1 0 0
24.09.20 04:00 747.2 12.5 83.2 1.1 195 2.1 0 0
24.09.20 03:00 747.1 13.3 80.7 1.1 188 2.1 0 0
24.09.20 02:00 747.1 13.6 80.9 1.1 175 2.6 0 0
24.09.20 01:00 747 14.2 80.2 1.4 180 2.5 0 0
24.09.20 00:00 746.8 14.6 80 1.3 181 3 0 0
23.09.20 23:00 746.5 15.1 78.8 1.2 184 2.5 0 0
23.09.20 22:00 746.1 15.8 75.7 1.5 185 3 0 0
23.09.20 21:00 746.1 16.3 74.8 1.4 174 2.1 0 0
23.09.20 20:00 746 17.6 70.2 1 182 2.2 0 0
23.09.20 19:00 746.1 18.7 66.8 0.7 167 2.1 0 0
23.09.20 18:00 746 21.4 57.3 1.2 177 2.3 0 0
23.09.20 17:00 745.9 25 45.8 1.4 224 4.1 0 0
23.09.20 16:00 746.1 24.8 45.1 2 202 4.1 0 0
23.09.20 15:00 745.9 25.2 42.3 1.4 209 4.6 0 0
23.09.20 14:00 746 24.8 45.8 1.6 223 4.7 0 0
23.09.20 13:00 746 23.8 50.3 1.4 212 4.5 0 0
23.09.20 12:00 746.1 21.5 57 1.8 195 4.4 0 0
23.09.20 11:00 746.5 20 60.8 1.3 213 2.8 0 0